SWR1244 EDDH-LSZH
Flight info
| Callsign | SWR1244 |
|---|---|
| Flight time | N/A |
| Altitude | 33000 |
| Route | IDEKO7G/33 IDEKO N850 ISPOF/N0450F350 N850 ROBEG DCT SWALM/N0450F340 DCT OMOGI/N0451F350 T721 LAMGO/N0413F230 T721 RILAX |
| Aircraft | A320/M-SDE3FGHIRWY/LB1 |
Departure
| Time | 2026-05-05 14:10 |
|---|---|
| Airport | Hamburg Helmut Schmidt Airport (EDDH) |
Arrival
| Time | N/A |
|---|---|
| Airport | Zürich Airport (LSZH) |
| Time | Latitude | Longitude | Altitude | Speed | Heading |
|---|---|---|---|---|---|
| 2026-05-05 13:40 | 53.63206 | 10.00361 | 49 ft | 0 kts | 86° |
| 2026-05-05 13:58 | 53.63205 | 10.00331 | 48 ft | 4 kts | 87° |
| 2026-05-05 13:58 | 53.63204 | 10.00286 | 48 ft | 4 kts | 94° |
| 2026-05-05 13:59 | 53.63219 | 10.00233 | 47 ft | 0 kts | 176° |
| 2026-05-05 14:03 | 53.63179 | 10.00191 | 48 ft | 10 kts | 202° |
| 2026-05-05 14:03 | 53.63116 | 10.00192 | 48 ft | 8 kts | 176° |
| 2026-05-05 14:03 | 53.63052 | 10.00165 | 48 ft | 13 kts | 213° |
| 2026-05-05 14:03 | 53.62981 | 10.00088 | 45 ft | 11 kts | 213° |
| 2026-05-05 14:04 | 53.62924 | 10.00007 | 47 ft | 10 kts | 238° |
| 2026-05-05 14:04 | 53.62894 | 9.99904 | 47 ft | 6 kts | 242° |
| 2026-05-05 14:04 | 53.62893 | 9.99903 | 47 ft | 0 kts | 242° |
| 2026-05-05 14:07 | 53.62867 | 9.99819 | 45 ft | 16 kts | 242° |
| 2026-05-05 14:07 | 53.62889 | 9.99726 | 45 ft | 0 kts | 333° |
| 2026-05-05 14:09 | 53.62901 | 9.99715 | 45 ft | 10 kts | 333° |
| 2026-05-05 14:09 | 53.63177 | 9.99477 | 47 ft | 82 kts | 332° |
| 2026-05-05 14:09 | 53.63882 | 9.98867 | 50 ft | 142 kts | 333° |
| 2026-05-05 14:09 | 53.64874 | 9.98008 | 315 ft | 168 kts | 335° |
| 2026-05-05 14:10 | 53.65949 | 9.97028 | 791 ft | 186 kts | 334° |
| 2026-05-05 14:10 | 53.67167 | 9.95970 | 1278 ft | 207 kts | 336° |
| 2026-05-05 14:10 | 53.68474 | 9.94871 | 2050 ft | 212 kts | 336° |
| 2026-05-05 14:10 | 53.69806 | 9.93749 | 2941 ft | 215 kts | 335° |
| 2026-05-05 14:11 | 53.70999 | 9.92234 | 3801 ft | 221 kts | 306° |
| 2026-05-05 14:11 | 53.71478 | 9.89786 | 4520 ft | 236 kts | 269° |
| 2026-05-05 14:11 | 53.71136 | 9.86941 | 4970 ft | 258 kts | 253° |
| 2026-05-05 14:11 | 53.70562 | 9.84012 | 5744 ft | 265 kts | 251° |
| 2026-05-05 14:12 | 53.69937 | 9.81072 | 6732 ft | 267 kts | 251° |
| 2026-05-05 14:12 | 53.69305 | 9.78114 | 7660 ft | 269 kts | 251° |
| 2026-05-05 14:12 | 53.68679 | 9.75127 | 8569 ft | 272 kts | 251° |
| 2026-05-05 14:12 | 53.68060 | 9.72094 | 9461 ft | 276 kts | 251° |
| 2026-05-05 14:13 | 53.67439 | 9.69005 | 9823 ft | 278 kts | 251° |
| 2026-05-05 14:13 | 53.66821 | 9.65897 | 9984 ft | 287 kts | 251° |
| 2026-05-05 14:13 | 53.65890 | 9.62757 | 10283 ft | 312 kts | 235° |
| 2026-05-05 14:13 | 53.64336 | 9.60014 | 10560 ft | 334 kts | 219° |
| 2026-05-05 14:14 | 53.62296 | 9.58013 | 11158 ft | 345 kts | 204° |
| 2026-05-05 14:14 | 53.59957 | 9.56935 | 11875 ft | 353 kts | 189° |
| 2026-05-05 14:14 | 53.57501 | 9.56432 | 12599 ft | 357 kts | 188° |
| 2026-05-05 14:14 | 53.55049 | 9.55942 | 13331 ft | 362 kts | 188° |
| 2026-05-05 14:15 | 53.52528 | 9.55439 | 14010 ft | 367 kts | 188° |
| 2026-05-05 14:15 | 53.49985 | 9.54931 | 14655 ft | 370 kts | 189° |
| 2026-05-05 14:15 | 53.47412 | 9.54417 | 15314 ft | 374 kts | 189° |
| 2026-05-05 14:15 | 53.44820 | 9.53902 | 15966 ft | 377 kts | 189° |
| 2026-05-05 14:16 | 53.42206 | 9.53385 | 16592 ft | 380 kts | 189° |
| 2026-05-05 14:16 | 53.39564 | 9.52869 | 17231 ft | 383 kts | 189° |
| 2026-05-05 14:16 | 53.36904 | 9.52351 | 17861 ft | 386 kts | 189° |
| 2026-05-05 14:16 | 53.34221 | 9.51827 | 18417 ft | 390 kts | 189° |
| 2026-05-05 14:17 | 53.31517 | 9.51298 | 18937 ft | 393 kts | 189° |
| 2026-05-05 14:17 | 53.28795 | 9.50764 | 19485 ft | 395 kts | 189° |
| 2026-05-05 14:17 | 53.26058 | 9.50231 | 20032 ft | 397 kts | 189° |
| 2026-05-05 14:17 | 53.23302 | 9.49694 | 20565 ft | 400 kts | 189° |
| 2026-05-05 14:18 | 53.20535 | 9.49150 | 21090 ft | 402 kts | 189° |
| 2026-05-05 14:18 | 53.18688 | 9.48784 | 21437 ft | 403 kts | 189° |
| 2026-05-05 14:18 | 53.15888 | 9.48232 | 21951 ft | 406 kts | 189° |
| 2026-05-05 14:18 | 53.13081 | 9.47682 | 22457 ft | 408 kts | 189° |
| 2026-05-05 14:19 | 53.10250 | 9.47133 | 22967 ft | 410 kts | 189° |
| 2026-05-05 14:19 | 53.07404 | 9.46583 | 23445 ft | 412 kts | 190° |
| 2026-05-05 14:19 | 53.04549 | 9.46032 | 23855 ft | 414 kts | 190° |
| 2026-05-05 14:19 | 53.01671 | 9.45480 | 24270 ft | 416 kts | 190° |
| 2026-05-05 14:20 | 52.98792 | 9.44927 | 24685 ft | 417 kts | 190° |
| 2026-05-05 14:20 | 52.95905 | 9.44346 | 25090 ft | 418 kts | 191° |
| 2026-05-05 14:20 | 52.93013 | 9.43734 | 25499 ft | 419 kts | 191° |
| 2026-05-05 14:20 | 52.90147 | 9.43110 | 25928 ft | 421 kts | 191° |
| 2026-05-05 14:21 | 52.87226 | 9.42467 | 26350 ft | 422 kts | 191° |
| 2026-05-05 14:21 | 52.84309 | 9.41832 | 26764 ft | 423 kts | 191° |
| 2026-05-05 14:21 | 52.81382 | 9.41198 | 27148 ft | 425 kts | 191° |
| 2026-05-05 14:21 | 52.78443 | 9.40565 | 27505 ft | 426 kts | 191° |
| 2026-05-05 14:22 | 52.75500 | 9.39937 | 27850 ft | 428 kts | 191° |
| 2026-05-05 14:22 | 52.72541 | 9.39306 | 28190 ft | 429 kts | 191° |
| 2026-05-05 14:22 | 52.69566 | 9.38679 | 28526 ft | 431 kts | 191° |
| 2026-05-05 14:22 | 52.66590 | 9.38057 | 28853 ft | 432 kts | 191° |
| 2026-05-05 14:23 | 52.63604 | 9.37432 | 29158 ft | 434 kts | 191° |
| 2026-05-05 14:23 | 52.60640 | 9.36787 | 29486 ft | 435 kts | 191° |
| 2026-05-05 14:23 | 52.57656 | 9.36049 | 29939 ft | 433 kts | 192° |
| 2026-05-05 14:23 | 52.54689 | 9.35252 | 30356 ft | 431 kts | 193° |
| 2026-05-05 14:24 | 52.51704 | 9.34424 | 30757 ft | 429 kts | 193° |
| 2026-05-05 14:24 | 52.48805 | 9.33624 | 31137 ft | 427 kts | 193° |
| 2026-05-05 14:24 | 52.45875 | 9.32832 | 31522 ft | 426 kts | 193° |
| 2026-05-05 14:24 | 52.42949 | 9.32057 | 31923 ft | 424 kts | 193° |
| 2026-05-05 14:25 | 52.40032 | 9.31298 | 32303 ft | 423 kts | 193° |
| 2026-05-05 14:25 | 52.37136 | 9.30550 | 32699 ft | 421 kts | 193° |
| 2026-05-05 14:25 | 52.34251 | 9.29804 | 32869 ft | 418 kts | 193° |
| 2026-05-05 14:25 | 52.31380 | 9.29061 | 32896 ft | 417 kts | 193° |
| 2026-05-05 14:26 | 52.25661 | 9.27571 | 32887 ft | 415 kts | 193° |
| 2026-05-05 14:26 | 52.19878 | 9.26790 | 32888 ft | 419 kts | 186° |
| 2026-05-05 14:27 | 52.14037 | 9.26548 | 32885 ft | 419 kts | 186° |
| 2026-05-05 14:27 | 52.08226 | 9.26310 | 32882 ft | 417 kts | 186° |
| 2026-05-05 14:28 | 52.02421 | 9.26061 | 32870 ft | 417 kts | 186° |
| 2026-05-05 14:28 | 51.96655 | 9.25872 | 32788 ft | 421 kts | 179° |
| 2026-05-05 14:29 | 51.90822 | 9.26099 | 32871 ft | 419 kts | 186° |
| 2026-05-05 14:29 | 51.85011 | 9.25515 | 32877 ft | 418 kts | 188° |
| 2026-05-05 14:30 | 51.79197 | 9.25005 | 32868 ft | 418 kts | 186° |
| 2026-05-05 14:30 | 51.73383 | 9.24730 | 32868 ft | 418 kts | 185° |
| 2026-05-05 14:31 | 51.67574 | 9.24543 | 32846 ft | 417 kts | 185° |
| 2026-05-05 14:31 | 51.61808 | 9.24324 | 32851 ft | 416 kts | 185° |
| 2026-05-05 14:32 | 51.56027 | 9.24074 | 32852 ft | 415 kts | 185° |
| 2026-05-05 14:32 | 51.50255 | 9.23819 | 32843 ft | 414 kts | 185° |
| 2026-05-05 14:33 | 51.44494 | 9.23583 | 32821 ft | 414 kts | 185° |
| 2026-05-05 14:33 | 51.38740 | 9.23346 | 32826 ft | 413 kts | 185° |
| 2026-05-05 14:34 | 51.32994 | 9.23109 | 32823 ft | 412 kts | 185° |
| 2026-05-05 14:34 | 51.27259 | 9.22866 | 32809 ft | 412 kts | 185° |
| 2026-05-05 14:35 | 51.21567 | 9.22627 | 32808 ft | 412 kts | 185° |
| 2026-05-05 14:35 | 51.15835 | 9.22376 | 32799 ft | 412 kts | 184° |
| 2026-05-05 14:36 | 51.10105 | 9.22131 | 32798 ft | 411 kts | 184° |
| 2026-05-05 14:36 | 51.04376 | 9.21898 | 32799 ft | 411 kts | 184° |
| 2026-05-05 14:37 | 50.98650 | 9.21666 | 32805 ft | 411 kts | 184° |
| 2026-05-05 14:37 | 50.92965 | 9.21427 | 32799 ft | 411 kts | 184° |
| 2026-05-05 14:38 | 50.87243 | 9.21187 | 32806 ft | 411 kts | 184° |
| 2026-05-05 14:38 | 50.81522 | 9.20956 | 32806 ft | 411 kts | 184° |
| 2026-05-05 14:39 | 50.75794 | 9.20724 | 32807 ft | 411 kts | 184° |
| 2026-05-05 14:39 | 50.70092 | 9.20221 | 32809 ft | 410 kts | 189° |
| 2026-05-05 14:40 | 50.64433 | 9.19035 | 32808 ft | 410 kts | 189° |
| 2026-05-05 14:40 | 50.58772 | 9.17859 | 32810 ft | 410 kts | 189° |
| 2026-05-05 14:41 | 50.53136 | 9.16695 | 32811 ft | 410 kts | 189° |
| 2026-05-05 14:41 | 50.47465 | 9.15519 | 32815 ft | 410 kts | 188° |
| 2026-05-05 14:42 | 50.41805 | 9.14351 | 32826 ft | 410 kts | 188° |
| 2026-05-05 14:42 | 50.36150 | 9.13181 | 32829 ft | 409 kts | 188° |
| 2026-05-05 14:43 | 50.30530 | 9.12041 | 32831 ft | 409 kts | 188° |
| 2026-05-05 14:43 | 50.24872 | 9.10885 | 32824 ft | 410 kts | 187° |
| 2026-05-05 14:44 | 50.19199 | 9.09731 | 32821 ft | 410 kts | 187° |
| 2026-05-05 14:44 | 50.13533 | 9.08582 | 32819 ft | 411 kts | 188° |
| 2026-05-05 14:45 | 50.07864 | 9.07408 | 32821 ft | 411 kts | 188° |
| 2026-05-05 14:45 | 50.02219 | 9.06261 | 32820 ft | 411 kts | 187° |
| 2026-05-05 14:46 | 49.96536 | 9.05140 | 32822 ft | 412 kts | 187° |
| 2026-05-05 14:46 | 49.90847 | 9.03996 | 32819 ft | 412 kts | 187° |
| 2026-05-05 14:47 | 49.85163 | 9.02834 | 32834 ft | 412 kts | 187° |
| 2026-05-05 14:47 | 49.79472 | 9.01689 | 32833 ft | 412 kts | 186° |
| 2026-05-05 14:48 | 49.73771 | 9.00541 | 32831 ft | 413 kts | 187° |
| 2026-05-05 14:48 | 49.68071 | 8.99398 | 32833 ft | 413 kts | 186° |
| 2026-05-05 14:49 | 49.62386 | 8.98176 | 32835 ft | 412 kts | 188° |
| 2026-05-05 14:49 | 49.56736 | 8.96599 | 32835 ft | 413 kts | 189° |
| 2026-05-05 14:50 | 49.51121 | 8.94955 | 32837 ft | 413 kts | 189° |
| 2026-05-05 14:50 | 49.45458 | 8.93361 | 32838 ft | 414 kts | 189° |
| 2026-05-05 14:51 | 49.39787 | 8.91819 | 32851 ft | 414 kts | 188° |
| 2026-05-05 14:51 | 49.34111 | 8.90279 | 32837 ft | 415 kts | 188° |
| 2026-05-05 14:52 | 49.28421 | 8.88736 | 32831 ft | 415 kts | 188° |
| 2026-05-05 14:52 | 49.22719 | 8.87194 | 32832 ft | 416 kts | 188° |
| 2026-05-05 14:53 | 49.17018 | 8.85646 | 32837 ft | 416 kts | 188° |
| 2026-05-05 14:53 | 49.11341 | 8.84093 | 32827 ft | 418 kts | 188° |
| 2026-05-05 14:54 | 49.05603 | 8.82518 | 32832 ft | 419 kts | 188° |
| 2026-05-05 14:54 | 48.99852 | 8.80951 | 32833 ft | 420 kts | 188° |
| 2026-05-05 14:55 | 48.94092 | 8.79403 | 32842 ft | 421 kts | 188° |
| 2026-05-05 14:55 | 48.88313 | 8.77844 | 32838 ft | 422 kts | 188° |
| 2026-05-05 14:56 | 48.85412 | 8.77062 | 32667 ft | 424 kts | 188° |
| 2026-05-05 14:56 | 48.82501 | 8.76280 | 32006 ft | 426 kts | 188° |
| 2026-05-05 14:56 | 48.79559 | 8.75489 | 30978 ft | 432 kts | 188° |
| 2026-05-05 14:56 | 48.76574 | 8.74692 | 29950 ft | 437 kts | 188° |
| 2026-05-05 14:57 | 48.73562 | 8.73894 | 28795 ft | 441 kts | 189° |
| 2026-05-05 14:57 | 48.70531 | 8.73090 | 27640 ft | 443 kts | 189° |
| 2026-05-05 14:57 | 48.67489 | 8.72279 | 26531 ft | 445 kts | 189° |
| 2026-05-05 14:57 | 48.64504 | 8.71479 | 25907 ft | 437 kts | 189° |
| 2026-05-05 14:58 | 48.61489 | 8.70671 | 25158 ft | 432 kts | 189° |
| 2026-05-05 14:58 | 48.58583 | 8.69890 | 24433 ft | 427 kts | 189° |
| 2026-05-05 14:58 | 48.55661 | 8.69110 | 23714 ft | 424 kts | 189° |
| 2026-05-05 14:58 | 48.52771 | 8.68343 | 22945 ft | 420 kts | 189° |
| 2026-05-05 14:59 | 48.49903 | 8.67584 | 22270 ft | 417 kts | 189° |
| 2026-05-05 14:59 | 48.46968 | 8.66811 | 21591 ft | 436 kts | 190° |
| 2026-05-05 14:59 | 48.43969 | 8.66023 | 20915 ft | 438 kts | 190° |
| 2026-05-05 14:59 | 48.40967 | 8.65233 | 20258 ft | 436 kts | 190° |
| 2026-05-05 15:00 | 48.37997 | 8.64448 | 19615 ft | 432 kts | 190° |
| 2026-05-05 15:00 | 48.36039 | 8.63910 | 19170 ft | 429 kts | 191° |
| 2026-05-05 15:00 | 48.32149 | 8.62762 | 18338 ft | 424 kts | 192° |
| 2026-05-05 15:00 | 48.29261 | 8.61865 | 17676 ft | 421 kts | 192° |
| 2026-05-05 15:01 | 48.26405 | 8.60968 | 17086 ft | 419 kts | 192° |
| 2026-05-05 15:01 | 48.23562 | 8.60088 | 16507 ft | 415 kts | 192° |
| 2026-05-05 15:01 | 48.20743 | 8.59225 | 15924 ft | 412 kts | 193° |
| 2026-05-05 15:01 | 48.17973 | 8.58385 | 15327 ft | 409 kts | 193° |
| 2026-05-05 15:02 | 48.15195 | 8.57550 | 14732 ft | 405 kts | 193° |
| 2026-05-05 15:02 | 48.12437 | 8.56732 | 14101 ft | 402 kts | 193° |
| 2026-05-05 15:02 | 48.09706 | 8.55925 | 13441 ft | 398 kts | 193° |
| 2026-05-05 15:02 | 48.07020 | 8.55132 | 13087 ft | 384 kts | 193° |
| 2026-05-05 15:03 | 48.04458 | 8.54379 | 12952 ft | 366 kts | 193° |
| 2026-05-05 15:03 | 48.01967 | 8.53646 | 12140 ft | 367 kts | 193° |
| 2026-05-05 15:03 | 47.99443 | 8.52895 | 11142 ft | 373 kts | 193° |
| 2026-05-05 15:03 | 47.96926 | 8.52147 | 10680 ft | 355 kts | 194° |
| 2026-05-05 15:04 | 47.94619 | 8.51471 | 10600 ft | 320 kts | 194° |
| 2026-05-05 15:04 | 47.92537 | 8.50861 | 10498 ft | 292 kts | 194° |
| 2026-05-05 15:04 | 47.90621 | 8.50288 | 10379 ft | 274 kts | 195° |
| 2026-05-05 15:04 | 47.88785 | 8.49730 | 10265 ft | 265 kts | 195° |
| 2026-05-05 15:05 | 47.85150 | 8.48610 | 10027 ft | 267 kts | 195° |
| 2026-05-05 15:05 | 47.83334 | 8.48052 | 9914 ft | 266 kts | 195° |
| 2026-05-05 15:05 | 47.81514 | 8.47494 | 9608 ft | 269 kts | 195° |
| 2026-05-05 15:06 | 47.79653 | 8.46928 | 9006 ft | 275 kts | 195° |
| 2026-05-05 15:06 | 47.77803 | 8.46372 | 8482 ft | 267 kts | 195° |
| 2026-05-05 15:06 | 47.76613 | 8.46016 | 8147 ft | 261 kts | 195° |
| 2026-05-05 15:06 | 47.74836 | 8.45482 | 7656 ft | 260 kts | 195° |
| 2026-05-05 15:07 | 47.73070 | 8.44950 | 7165 ft | 259 kts | 195° |
| 2026-05-05 15:07 | 47.70760 | 8.44252 | 6632 ft | 252 kts | 197° |
| 2026-05-05 15:07 | 47.69141 | 8.43343 | 6169 ft | 247 kts | 211° |
| 2026-05-05 15:07 | 47.67776 | 8.41823 | 5686 ft | 245 kts | 226° |
| 2026-05-05 15:08 | 47.66672 | 8.40020 | 5604 ft | 227 kts | 228° |
| 2026-05-05 15:08 | 47.65963 | 8.38887 | 5568 ft | 217 kts | 228° |